createdAt,value
2018-06-14T00:00:04.460Z,21.70
2018-06-14T00:00:36.172Z,21.70
2018-06-14T00:01:07.913Z,21.70
2018-06-14T00:01:39.654Z,21.70
2018-06-14T00:02:11.383Z,21.70
2018-06-14T00:02:43.104Z,21.70
2018-06-14T00:03:14.826Z,21.70
2018-06-14T00:03:46.563Z,21.70
2018-06-14T00:04:18.285Z,21.70
2018-06-14T00:04:50.002Z,21.70
2018-06-14T00:05:21.711Z,21.70
2018-06-14T00:05:53.438Z,21.70
2018-06-14T00:06:25.166Z,21.60
2018-06-14T00:06:56.897Z,21.60
2018-06-14T00:07:28.616Z,21.60
2018-06-14T00:08:00.330Z,21.60
2018-06-14T00:08:32.048Z,21.60
2018-06-14T00:09:03.765Z,21.60
2018-06-14T00:09:35.481Z,21.60
2018-06-14T00:10:07.212Z,21.70
2018-06-14T00:10:38.938Z,21.70
2018-06-14T00:11:10.659Z,21.70
2018-06-14T00:11:42.366Z,21.70
2018-06-14T00:12:14.096Z,21.70
2018-06-14T00:12:45.805Z,21.60
2018-06-14T00:13:17.522Z,21.70
2018-06-14T00:13:49.241Z,21.60
2018-06-14T00:14:20.949Z,21.60
2018-06-14T00:14:52.665Z,21.60
2018-06-14T00:15:24.400Z,21.60
2018-06-14T00:15:56.118Z,21.60
2018-06-14T00:16:27.827Z,21.60
2018-06-14T00:16:59.580Z,21.60
2018-06-14T00:17:31.303Z,21.60
2018-06-14T00:18:03.009Z,21.60
2018-06-14T00:18:34.733Z,21.60
2018-06-14T00:19:06.455Z,21.60
2018-06-14T00:19:38.173Z,21.60
2018-06-14T00:20:09.886Z,21.60
2018-06-14T00:22:33.171Z,21.60
2018-06-14T00:23:04.890Z,21.60
2018-06-14T00:23:36.626Z,21.50
2018-06-14T00:24:08.339Z,21.50
2018-06-14T00:24:40.051Z,21.50
2018-06-14T00:25:11.775Z,21.50
2018-06-14T00:25:43.502Z,21.60
2018-06-14T00:26:15.255Z,21.50
2018-06-14T00:26:46.983Z,21.60
2018-06-14T00:27:18.713Z,21.50
2018-06-14T00:27:50.519Z,21.50
2018-06-14T00:28:22.235Z,21.60
2018-06-14T00:28:53.960Z,21.60
2018-06-14T00:29:25.682Z,21.60
2018-06-14T00:29:57.466Z,21.60
2018-06-14T00:30:29.274Z,21.60
2018-06-14T00:31:00.990Z,21.60
2018-06-14T00:31:32.730Z,21.60
2018-06-14T00:32:04.491Z,21.70
2018-06-14T00:32:36.231Z,21.60
2018-06-14T00:33:07.968Z,21.60
2018-06-14T00:33:39.709Z,21.60
2018-06-14T00:34:11.432Z,21.70
2018-06-14T00:34:43.196Z,21.60
2018-06-14T00:35:14.940Z,21.60
2018-06-14T00:35:46.674Z,21.60
2018-06-14T00:36:18.381Z,21.60
2018-06-14T00:36:50.147Z,21.60
2018-06-14T00:37:21.969Z,21.60
2018-06-14T00:37:53.711Z,21.60
2018-06-14T00:38:25.434Z,21.60
2018-06-14T00:38:57.186Z,21.60
2018-06-14T00:39:28.957Z,21.60
2018-06-14T00:44:21.609Z,21.60
2018-06-14T00:44:53.361Z,21.60
2018-06-14T00:45:25.072Z,21.60
2018-06-14T00:45:56.817Z,21.60
2018-06-14T00:46:28.518Z,21.60
2018-06-14T00:47:00.226Z,21.60
2018-06-14T00:47:31.971Z,21.60
2018-06-14T00:48:03.691Z,21.60
2018-06-14T00:48:35.447Z,21.60
2018-06-14T00:49:07.217Z,21.60
2018-06-14T00:49:38.936Z,21.60
2018-06-14T00:50:10.726Z,21.60
2018-06-14T00:50:42.488Z,21.60
2018-06-14T00:51:14.296Z,21.60
2018-06-14T00:51:46.033Z,21.60
2018-06-14T00:52:17.780Z,21.60
2018-06-14T00:52:49.512Z,21.60
2018-06-14T00:53:21.269Z,21.70
2018-06-14T00:53:53.016Z,21.70
2018-06-14T00:54:24.771Z,21.70
2018-06-14T00:54:56.523Z,21.70
2018-06-14T00:55:28.226Z,21.70
2018-06-14T00:55:59.959Z,21.70
2018-06-14T00:56:31.738Z,21.70
2018-06-14T00:57:03.483Z,21.60
2018-06-14T00:57:35.196Z,21.60
2018-06-14T00:58:06.939Z,21.60
2018-06-14T00:58:38.673Z,21.60
2018-06-14T00:59:10.438Z,21.60
2018-06-14T00:59:42.173Z,21.70
2018-06-14T01:00:13.909Z,21.70
2018-06-14T01:00:45.623Z,21.60
2018-06-14T01:01:17.403Z,21.70
2018-06-14T01:01:49.186Z,21.70
2018-06-14T01:02:20.950Z,21.70
2018-06-14T01:02:52.681Z,21.70
2018-06-14T01:03:24.433Z,21.70
2018-06-14T01:03:56.183Z,21.70
2018-06-14T01:04:27.931Z,21.70
2018-06-14T01:04:59.682Z,21.70
2018-06-14T01:05:31.456Z,21.70
2018-06-14T01:06:03.151Z,21.70
2018-06-14T01:06:34.872Z,21.60
2018-06-14T01:07:06.655Z,21.60
2018-06-14T01:07:38.395Z,21.60
2018-06-14T01:08:10.130Z,21.60
2018-06-14T01:08:41.873Z,21.60
2018-06-14T01:09:13.598Z,21.60
2018-06-14T01:09:45.315Z,21.60
2018-06-14T01:10:17.067Z,21.60
2018-06-14T01:10:48.804Z,21.60
2018-06-14T01:11:52.613Z,21.60
2018-06-14T01:12:24.342Z,21.70
2018-06-14T01:12:56.090Z,21.70
2018-06-14T01:13:27.834Z,21.70
2018-06-14T01:13:59.623Z,21.70
2018-06-14T01:14:31.389Z,21.70
2018-06-14T01:15:03.126Z,21.60
2018-06-14T01:15:34.931Z,21.60
2018-06-14T01:16:06.644Z,21.60
2018-06-14T01:16:38.336Z,21.60
2018-06-14T01:17:10.091Z,21.60
2018-06-14T01:17:41.823Z,21.60
2018-06-14T01:18:13.551Z,21.60
2018-06-14T01:18:45.283Z,21.60
2018-06-14T01:19:16.997Z,21.60
2018-06-14T01:19:48.711Z,21.60
2018-06-14T01:20:20.489Z,21.60
2018-06-14T01:20:52.198Z,21.60
2018-06-14T01:21:23.944Z,21.60
2018-06-14T01:21:55.732Z,21.70
2018-06-14T01:22:27.576Z,21.70
2018-06-14T01:22:59.351Z,21.70
2018-06-14T01:23:31.103Z,21.70
2018-06-14T01:24:02.832Z,21.70
2018-06-14T01:24:34.607Z,21.60
2018-06-14T01:25:06.342Z,21.60
2018-06-14T01:25:38.077Z,21.60
2018-06-14T01:26:09.800Z,21.60
2018-06-14T01:26:41.523Z,21.60
2018-06-14T01:27:13.255Z,21.60
2018-06-14T01:27:44.998Z,21.60
2018-06-14T01:28:16.698Z,21.60
2018-06-14T01:28:48.425Z,21.60
2018-06-14T01:29:20.218Z,21.60
2018-06-14T01:29:51.943Z,21.60
2018-06-14T01:30:23.667Z,21.60
2018-06-14T01:30:55.406Z,21.60
2018-06-14T01:31:27.167Z,21.60
2018-06-14T01:31:58.888Z,21.60
2018-06-14T01:32:30.616Z,21.60
2018-06-14T01:33:02.378Z,21.60
2018-06-14T01:33:34.131Z,21.60
2018-06-14T01:34:05.900Z,21.60
2018-06-14T01:34:37.665Z,21.60
2018-06-14T01:35:09.383Z,21.60
2018-06-14T01:35:41.115Z,21.60
2018-06-14T01:36:12.937Z,21.60
2018-06-14T01:36:44.688Z,21.60
2018-06-14T01:37:16.401Z,21.60
2018-06-14T01:37:48.166Z,21.60
2018-06-14T01:38:19.926Z,21.60
2018-06-14T01:38:51.641Z,21.60
2018-06-14T01:39:23.366Z,21.60
2018-06-14T01:39:55.159Z,21.60
2018-06-14T01:40:26.878Z,21.60
2018-06-14T01:40:58.607Z,21.60
2018-06-14T01:41:30.349Z,21.50
2018-06-14T01:42:02.072Z,21.60
2018-06-14T01:42:33.827Z,21.50
2018-06-14T01:43:05.567Z,21.60
2018-06-14T01:43:37.320Z,21.60
2018-06-14T01:44:09.071Z,21.60
2018-06-14T01:44:40.814Z,21.60
2018-06-14T01:45:12.593Z,21.60
2018-06-14T01:45:44.315Z,21.60
2018-06-14T01:46:16.064Z,21.50
2018-06-14T01:46:47.807Z,21.50
2018-06-14T01:47:19.519Z,21.50
2018-06-14T01:47:51.259Z,21.50
2018-06-14T01:48:23.009Z,21.50
2018-06-14T01:48:54.774Z,21.50
2018-06-14T01:49:26.494Z,21.50
2018-06-14T01:49:58.251Z,21.50
2018-06-14T01:50:29.993Z,21.50
2018-06-14T01:51:01.758Z,21.60
2018-06-14T01:51:33.474Z,21.50
2018-06-14T01:52:05.276Z,21.50
2018-06-14T01:52:37.029Z,21.50
2018-06-14T01:53:08.766Z,21.50
2018-06-14T01:53:40.477Z,21.50
2018-06-14T01:54:12.235Z,21.50
2018-06-14T01:54:43.972Z,21.50
2018-06-14T01:55:15.703Z,21.50
2018-06-14T01:55:47.433Z,21.50
2018-06-14T01:56:19.173Z,21.50
2018-06-14T01:56:50.923Z,21.50
2018-06-14T01:57:22.720Z,21.50
2018-06-14T01:57:54.470Z,21.50
2018-06-14T01:58:26.195Z,21.50
2018-06-14T01:58:57.968Z,21.50
2018-06-14T01:59:29.743Z,21.60
2018-06-14T02:00:01.475Z,21.60
2018-06-14T02:00:33.230Z,21.60
2018-06-14T02:01:05.041Z,21.60
2018-06-14T02:01:36.810Z,21.60
2018-06-14T02:02:08.572Z,21.60
2018-06-14T02:02:40.321Z,21.60
2018-06-14T02:03:12.088Z,21.60
2018-06-14T02:03:43.810Z,21.60
2018-06-14T02:04:15.597Z,21.60
2018-06-14T02:04:47.314Z,21.60
2018-06-14T02:05:19.083Z,21.60
2018-06-14T02:05:50.803Z,21.60
2018-06-14T02:06:22.536Z,21.60
2018-06-14T02:06:54.297Z,21.60
2018-06-14T02:07:26.030Z,21.60
2018-06-14T02:07:57.755Z,21.60
2018-06-14T02:08:29.493Z,21.60
2018-06-14T02:09:01.246Z,21.60
2018-06-14T02:09:33.061Z,21.60
2018-06-14T02:10:04.803Z,21.60
2018-06-14T02:10:36.637Z,21.60
2018-06-14T02:11:08.401Z,21.60
2018-06-14T02:11:40.122Z,21.60
2018-06-14T02:12:11.912Z,21.60
2018-06-14T02:12:43.617Z,21.60
2018-06-14T02:13:15.344Z,21.60
2018-06-14T02:13:47.069Z,21.60
2018-06-14T02:14:18.817Z,21.60
2018-06-14T02:14:50.590Z,21.60
2018-06-14T02:15:22.376Z,21.60
2018-06-14T02:15:54.104Z,21.60
2018-06-14T02:16:25.969Z,21.60
2018-06-14T02:16:57.832Z,21.60
2018-06-14T02:17:29.598Z,21.50
2018-06-14T02:18:01.311Z,21.50
2018-06-14T02:18:33.054Z,21.50
2018-06-14T02:19:04.807Z,21.50
2018-06-14T02:19:36.554Z,21.60
2018-06-14T02:20:08.324Z,21.60
2018-06-14T02:20:40.050Z,21.60
2018-06-14T02:21:11.802Z,21.60
2018-06-14T02:21:43.521Z,21.60
2018-06-14T02:22:15.273Z,21.60
2018-06-14T02:22:47.043Z,21.60
2018-06-14T02:23:18.792Z,21.60
2018-06-14T02:23:50.526Z,21.60
2018-06-14T02:24:22.238Z,21.60
2018-06-14T02:24:54.013Z,21.60
2018-06-14T02:25:25.758Z,21.60
2018-06-14T02:25:57.486Z,21.50
2018-06-14T02:26:29.222Z,21.50
2018-06-14T02:27:00.994Z,21.50
2018-06-14T02:27:32.712Z,21.50
2018-06-14T02:28:04.443Z,21.50
2018-06-14T02:28:36.186Z,21.50
2018-06-14T02:29:07.971Z,21.50
2018-06-14T02:29:39.728Z,21.50
2018-06-14T02:30:11.471Z,21.50
2018-06-14T02:30:43.281Z,21.50
2018-06-14T02:31:15.018Z,21.50
2018-06-14T02:31:46.777Z,21.60
2018-06-14T02:32:18.596Z,21.60
2018-06-14T02:32:50.348Z,21.50
2018-06-14T02:33:22.097Z,21.60
2018-06-14T02:33:53.882Z,21.60
2018-06-14T02:34:25.610Z,21.60
2018-06-14T02:34:57.373Z,21.50
2018-06-14T02:35:29.146Z,21.60
2018-06-14T02:36:00.915Z,21.50
2018-06-14T02:36:32.656Z,21.50
2018-06-14T02:37:04.401Z,21.60
2018-06-14T02:37:36.133Z,21.60
2018-06-14T02:38:07.921Z,21.50
2018-06-14T02:38:39.642Z,21.50
2018-06-14T02:39:11.413Z,21.50
2018-06-14T02:39:43.148Z,21.50
2018-06-14T02:40:14.920Z,21.50
2018-06-14T02:41:18.674Z,21.50
2018-06-14T02:41:50.390Z,21.50
2018-06-14T02:42:22.170Z,21.50
2018-06-14T02:42:53.935Z,21.50
2018-06-14T02:43:25.702Z,21.50
2018-06-14T02:43:57.461Z,21.50
2018-06-14T02:44:29.239Z,21.50
2018-06-14T02:45:00.972Z,21.50
2018-06-14T02:45:32.706Z,21.50
2018-06-14T02:46:04.451Z,21.50
2018-06-14T02:46:36.192Z,21.50
2018-06-14T02:47:07.897Z,21.50
2018-06-14T02:47:39.620Z,21.50
2018-06-14T02:48:11.373Z,21.50
2018-06-14T02:48:43.097Z,21.50
2018-06-14T02:49:14.946Z,21.50
2018-06-14T02:49:46.654Z,21.50
2018-06-14T02:50:18.409Z,21.50
2018-06-14T02:50:50.136Z,21.50
2018-06-14T02:51:21.894Z,21.50
2018-06-14T02:51:53.617Z,21.50
2018-06-14T02:52:25.362Z,21.50
2018-06-14T02:52:57.103Z,21.50
2018-06-14T02:53:28.845Z,21.50
2018-06-14T02:54:00.574Z,21.50
2018-06-14T02:54:32.315Z,21.60
2018-06-14T02:55:04.070Z,21.60
2018-06-14T02:55:35.843Z,21.60
2018-06-14T02:56:07.585Z,21.60
2018-06-14T02:56:39.342Z,21.50
2018-06-14T02:57:11.083Z,21.50
2018-06-14T02:57:42.829Z,21.50
2018-06-14T02:58:14.559Z,21.50
2018-06-14T02:58:46.283Z,21.50
2018-06-14T02:59:50.039Z,21.50
2018-06-14T03:00:21.824Z,21.50
2018-06-14T03:00:53.522Z,21.50
2018-06-14T03:01:25.259Z,21.50
2018-06-14T03:01:57.019Z,21.50
2018-06-14T03:02:28.718Z,21.50
2018-06-14T03:03:00.478Z,21.50
2018-06-14T03:03:32.239Z,21.50
2018-06-14T03:04:04.003Z,21.50
2018-06-14T03:04:35.736Z,21.50
2018-06-14T03:05:07.462Z,21.50
2018-06-14T03:05:39.203Z,21.50
2018-06-14T03:06:10.990Z,21.50
2018-06-14T03:06:42.706Z,21.50
2018-06-14T03:07:14.472Z,21.50
2018-06-14T03:07:46.180Z,21.50
2018-06-14T03:08:17.950Z,21.50
2018-06-14T03:08:49.681Z,21.50
2018-06-14T03:09:21.496Z,21.50
2018-06-14T03:09:53.269Z,21.50
2018-06-14T03:10:25.013Z,21.50
2018-06-14T03:10:56.746Z,21.50
2018-06-14T03:11:28.479Z,21.50
2018-06-14T03:12:00.198Z,21.50
2018-06-14T03:12:31.948Z,21.50
2018-06-14T03:13:03.687Z,21.50
2018-06-14T03:13:35.439Z,21.50
2018-06-14T03:14:07.213Z,21.50
2018-06-14T03:14:38.937Z,21.50
2018-06-14T03:15:10.670Z,21.50
2018-06-14T03:15:42.418Z,21.50
2018-06-14T03:16:14.204Z,21.50
2018-06-14T03:16:45.911Z,21.50
2018-06-14T03:17:17.649Z,21.50
2018-06-14T03:17:49.405Z,21.50
2018-06-14T03:18:21.145Z,21.50
2018-06-14T03:18:52.879Z,21.50
2018-06-14T03:19:24.598Z,21.50
2018-06-14T03:19:56.379Z,21.50
2018-06-14T03:20:28.102Z,21.50
2018-06-14T03:20:59.856Z,21.50
2018-06-14T03:21:31.597Z,21.50
2018-06-14T03:22:03.343Z,21.50
2018-06-14T03:22:35.073Z,21.50
2018-06-14T03:23:06.804Z,21.50
2018-06-14T03:23:38.712Z,21.50
2018-06-14T03:24:10.465Z,21.50
2018-06-14T03:24:42.285Z,21.50
2018-06-14T03:25:46.019Z,21.50
2018-06-14T03:26:17.769Z,21.50
2018-06-14T03:26:49.655Z,21.50
2018-06-14T03:27:21.357Z,21.50
2018-06-14T03:27:53.183Z,21.50
2018-06-14T03:28:24.885Z,21.50
2018-06-14T03:28:56.615Z,21.50
2018-06-14T03:29:28.344Z,21.50
2018-06-14T03:30:00.120Z,21.50
2018-06-14T03:30:31.880Z,21.50
2018-06-14T03:31:03.614Z,21.50
2018-06-14T03:31:35.370Z,21.50
2018-06-14T03:32:07.114Z,21.50
2018-06-14T03:32:38.860Z,21.50
2018-06-14T03:33:10.637Z,21.50
2018-06-14T03:33:42.336Z,21.50
2018-06-14T03:34:14.086Z,21.50
2018-06-14T03:34:45.860Z,21.50
2018-06-14T03:35:17.628Z,21.50
2018-06-14T03:35:49.415Z,21.50
2018-06-14T03:36:21.180Z,21.50
2018-06-14T03:36:52.898Z,21.50
2018-06-14T03:37:24.621Z,21.50
2018-06-14T03:37:56.376Z,21.50
2018-06-14T03:38:28.108Z,21.50
2018-06-14T03:38:59.854Z,21.50
2018-06-14T03:39:31.616Z,21.50
2018-06-14T03:40:03.365Z,21.50
2018-06-14T03:40:35.154Z,21.50
2018-06-14T03:41:06.919Z,21.50
2018-06-14T03:41:38.635Z,21.50
2018-06-14T03:42:10.380Z,21.50
2018-06-14T03:42:42.126Z,21.50
2018-06-14T03:43:13.869Z,21.50
2018-06-14T03:43:45.614Z,21.50
2018-06-14T03:44:17.359Z,21.50
2018-06-14T03:44:49.077Z,21.50
2018-06-14T03:45:20.818Z,21.50
2018-06-14T03:46:24.577Z,21.50
2018-06-14T03:46:56.323Z,21.50
2018-06-14T03:47:28.066Z,21.50
2018-06-14T03:47:59.794Z,21.50
2018-06-14T03:48:31.563Z,21.50
2018-06-14T03:49:03.294Z,21.50
2018-06-14T03:49:35.019Z,21.50
2018-06-14T03:50:06.728Z,21.50
2018-06-14T03:50:38.482Z,21.50
2018-06-14T03:51:10.186Z,21.50
2018-06-14T03:51:41.929Z,21.50
2018-06-14T03:52:13.627Z,21.50
2018-06-14T03:52:45.353Z,21.50
2018-06-14T03:53:17.102Z,21.50
2018-06-14T03:53:48.824Z,21.50
2018-06-14T03:54:20.575Z,21.50
2018-06-14T03:54:52.328Z,21.50
2018-06-14T03:55:24.049Z,21.50
2018-06-14T03:55:55.789Z,21.50
2018-06-14T03:56:27.608Z,21.50
2018-06-14T03:56:59.321Z,21.50
2018-06-14T03:57:31.054Z,21.50
2018-06-14T03:58:02.816Z,21.50
2018-06-14T03:58:34.588Z,21.50
2018-06-14T03:59:06.340Z,21.50
2018-06-14T03:59:38.060Z,21.50
2018-06-14T04:00:09.901Z,21.50
2018-06-14T04:00:41.674Z,21.50
2018-06-14T04:01:13.385Z,21.50
2018-06-14T04:01:45.111Z,21.50
2018-06-14T04:02:16.906Z,21.50
2018-06-14T04:02:48.634Z,21.50
2018-06-14T04:03:20.365Z,21.50
2018-06-14T04:03:52.132Z,21.50
2018-06-14T04:04:23.817Z,21.50
2018-06-14T04:04:55.583Z,21.40
2018-06-14T04:05:27.349Z,21.50
2018-06-14T04:05:59.048Z,21.50
2018-06-14T04:06:30.780Z,21.50
2018-06-14T04:07:02.513Z,21.50
2018-06-14T04:07:34.240Z,21.50
2018-06-14T04:08:05.964Z,21.50
2018-06-14T04:08:37.693Z,21.50
2018-06-14T04:09:09.451Z,21.50
2018-06-14T04:09:41.191Z,21.50
2018-06-14T04:10:12.934Z,21.50
2018-06-14T04:10:44.648Z,21.50
2018-06-14T04:11:16.393Z,21.50
2018-06-14T04:11:48.115Z,21.50
2018-06-14T04:12:19.867Z,21.50
2018-06-14T04:12:51.583Z,21.50
2018-06-14T04:13:23.311Z,21.50
2018-06-14T04:13:55.029Z,21.50
2018-06-14T04:14:26.774Z,21.50
2018-06-14T04:14:58.490Z,21.50
2018-06-14T04:15:30.207Z,21.50
2018-06-14T04:16:01.940Z,21.50
2018-06-14T04:16:33.709Z,21.50
2018-06-14T04:17:05.521Z,21.50
2018-06-14T04:17:37.260Z,21.50
2018-06-14T04:18:08.982Z,21.50
2018-06-14T04:18:40.725Z,21.50
2018-06-14T04:19:12.454Z,21.60
2018-06-14T04:19:44.185Z,21.60
2018-06-14T04:20:15.894Z,21.60
2018-06-14T04:20:47.614Z,21.60
2018-06-14T04:21:19.370Z,21.50
2018-06-14T04:21:51.084Z,21.50
2018-06-14T04:22:22.822Z,21.40
2018-06-14T04:22:54.556Z,21.30
2018-06-14T04:23:26.400Z,21.30
2018-06-14T04:23:58.114Z,21.20
2018-06-14T04:24:29.886Z,21.10
2018-06-14T04:25:01.606Z,21.10
2018-06-14T04:25:33.345Z,21.10
2018-06-14T04:26:05.072Z,21.10
2018-06-14T04:26:36.798Z,21.10
2018-06-14T04:27:08.551Z,21.10
2018-06-14T04:27:40.258Z,21.10
2018-06-14T04:28:12.037Z,21.10
2018-06-14T04:28:43.782Z,21.00
2018-06-14T04:29:15.498Z,21.00
2018-06-14T04:29:47.205Z,21.00
2018-06-14T04:30:18.956Z,21.00
2018-06-14T04:30:50.671Z,21.00
2018-06-14T04:31:22.384Z,21.00
2018-06-14T04:31:54.128Z,21.00
2018-06-14T04:32:25.849Z,21.00
2018-06-14T04:32:57.585Z,21.00
2018-06-14T04:33:29.303Z,21.00
2018-06-14T04:34:01.030Z,21.00
2018-06-14T04:34:32.750Z,20.90
2018-06-14T04:35:04.468Z,21.00
2018-06-14T04:35:36.181Z,21.00
2018-06-14T04:36:07.882Z,21.00
2018-06-14T04:36:39.625Z,20.90
2018-06-14T04:37:11.339Z,20.90
2018-06-14T04:37:43.046Z,20.80
2018-06-14T04:38:14.768Z,20.80
2018-06-14T04:38:46.538Z,20.80
2018-06-14T04:39:18.291Z,20.80
2018-06-14T04:39:49.973Z,20.80
2018-06-14T04:40:21.736Z,20.80
2018-06-14T04:40:53.465Z,20.80
2018-06-14T04:41:25.206Z,20.80
2018-06-14T04:41:56.987Z,20.80
2018-06-14T04:42:28.677Z,20.80
2018-06-14T04:43:00.422Z,20.80
2018-06-14T04:43:32.157Z,20.80
2018-06-14T04:44:03.873Z,20.90
2018-06-14T04:44:35.613Z,20.90
2018-06-14T04:45:07.349Z,21.00
2018-06-14T04:45:39.073Z,21.00
2018-06-14T04:46:10.799Z,21.00
2018-06-14T04:46:42.564Z,21.10
2018-06-14T04:47:14.260Z,21.10
2018-06-14T04:47:45.992Z,21.10
2018-06-14T04:48:17.743Z,21.10
2018-06-14T04:48:49.456Z,21.10
2018-06-14T04:49:21.185Z,21.10
2018-06-14T04:49:52.928Z,21.10
2018-06-14T04:50:24.641Z,21.10
2018-06-14T04:50:56.359Z,21.10
2018-06-14T04:51:28.066Z,21.10
2018-06-14T04:51:59.845Z,21.20
2018-06-14T04:52:31.563Z,21.20
2018-06-14T04:53:03.258Z,21.10
2018-06-14T04:53:35.018Z,21.20
2018-06-14T04:54:06.744Z,21.10
2018-06-14T04:54:38.465Z,21.20
2018-06-14T04:55:10.178Z,21.20
2018-06-14T04:55:41.950Z,21.20
2018-06-14T04:56:13.686Z,21.20
2018-06-14T04:56:45.402Z,21.20
2018-06-14T04:57:17.167Z,21.30
2018-06-14T04:57:48.934Z,21.30
2018-06-14T04:58:20.648Z,21.30
2018-06-14T04:58:52.366Z,21.30
2018-06-14T04:59:24.089Z,21.30
2018-06-14T04:59:55.846Z,21.30
2018-06-14T05:00:27.553Z,21.30
2018-06-14T05:00:59.318Z,21.30
2018-06-14T05:01:31.055Z,21.30
2018-06-14T05:02:02.789Z,21.30
2018-06-14T05:02:34.530Z,21.30
2018-06-14T05:03:06.258Z,21.20
2018-06-14T05:03:37.989Z,21.20
2018-06-14T05:04:09.790Z,21.20
2018-06-14T05:04:41.507Z,21.20
2018-06-14T05:05:13.236Z,21.20
2018-06-14T05:05:44.998Z,21.20
2018-06-14T05:06:16.723Z,21.20
2018-06-14T05:06:48.456Z,21.20
2018-06-14T05:07:20.207Z,21.20
2018-06-14T05:07:51.935Z,21.10
2018-06-14T05:08:23.658Z,21.10
2018-06-14T05:08:55.409Z,21.10
2018-06-14T05:09:27.110Z,21.10
2018-06-14T05:09:58.828Z,21.10
2018-06-14T05:10:30.613Z,21.10
2018-06-14T05:11:02.342Z,21.20
2018-06-14T05:11:34.095Z,21.20
2018-06-14T05:12:05.814Z,21.20
2018-06-14T05:12:37.638Z,21.20
2018-06-14T05:13:09.401Z,21.20
2018-06-14T05:13:41.196Z,21.20
2018-06-14T05:14:12.970Z,21.20
2018-06-14T05:14:44.726Z,21.20
2018-06-14T05:15:16.462Z,21.20
2018-06-14T05:15:48.177Z,21.20
2018-06-14T05:16:19.934Z,21.20
2018-06-14T05:16:51.644Z,21.20
2018-06-14T05:17:23.379Z,21.20
2018-06-14T05:17:55.132Z,21.10
2018-06-14T05:18:26.933Z,21.20
2018-06-14T05:18:58.645Z,21.10
2018-06-14T05:19:30.370Z,21.10
2018-06-14T05:20:02.134Z,21.10
2018-06-14T05:20:33.886Z,21.10
2018-06-14T05:21:05.606Z,21.20
2018-06-14T05:21:37.379Z,21.20
2018-06-14T05:22:09.104Z,21.10
2018-06-14T05:22:40.825Z,21.10
2018-06-14T05:23:12.595Z,21.10
2018-06-14T05:23:44.325Z,21.10
2018-06-14T05:24:16.067Z,21.10
2018-06-14T05:24:47.820Z,21.10
2018-06-14T05:25:19.530Z,21.10
2018-06-14T05:25:51.263Z,21.10
2018-06-14T05:26:23.006Z,21.00
2018-06-14T05:26:54.726Z,21.00
2018-06-14T05:27:26.509Z,21.10
2018-06-14T05:27:58.221Z,21.10
2018-06-14T05:28:29.967Z,21.10
2018-06-14T05:29:01.710Z,21.10
2018-06-14T05:29:33.425Z,21.10
2018-06-14T05:30:05.215Z,21.10
2018-06-14T05:30:36.938Z,21.10
2018-06-14T05:31:08.654Z,21.10
2018-06-14T05:31:40.373Z,21.10
2018-06-14T05:32:12.082Z,21.10
2018-06-14T05:32:43.839Z,21.10
2018-06-14T05:33:15.584Z,21.10
2018-06-14T05:33:47.318Z,21.20
2018-06-14T05:34:19.055Z,21.20
2018-06-14T05:34:50.811Z,21.20
2018-06-14T05:35:22.548Z,21.20
2018-06-14T05:35:54.291Z,21.20
2018-06-14T05:36:26.028Z,21.10
2018-06-14T05:36:57.794Z,21.10
2018-06-14T05:37:29.530Z,21.10
2018-06-14T05:38:01.280Z,21.20
2018-06-14T05:38:33.014Z,21.20
2018-06-14T05:39:04.714Z,21.20
2018-06-14T05:39:36.436Z,21.20
2018-06-14T05:40:08.173Z,21.20
2018-06-14T05:40:39.902Z,21.30
2018-06-14T05:41:11.619Z,21.30
2018-06-14T05:41:43.349Z,21.30
2018-06-14T05:42:15.119Z,21.30
2018-06-14T05:42:46.891Z,21.30
2018-06-14T05:43:18.585Z,21.30
2018-06-14T05:43:50.315Z,21.30
2018-06-14T05:44:22.087Z,21.30
2018-06-14T05:44:53.796Z,21.30
2018-06-14T05:45:25.542Z,21.30
2018-06-14T05:45:57.292Z,21.30
2018-06-14T05:46:29.000Z,21.30
2018-06-14T05:47:00.705Z,21.30
2018-06-14T05:47:32.430Z,21.30
2018-06-14T05:48:04.161Z,21.30
2018-06-14T05:48:35.865Z,21.30
2018-06-14T05:49:07.604Z,21.30
2018-06-14T05:49:39.337Z,21.20
2018-06-14T05:50:11.102Z,21.20
2018-06-14T05:50:42.876Z,21.20
2018-06-14T05:51:14.628Z,21.10
2018-06-14T05:51:46.339Z,21.10
2018-06-14T05:52:18.050Z,21.10
2018-06-14T05:52:49.759Z,21.20
2018-06-14T05:53:21.474Z,21.10
2018-06-14T05:53:53.203Z,21.10
2018-06-14T05:54:24.937Z,21.10
2018-06-14T05:54:56.666Z,21.10
2018-06-14T05:55:28.413Z,21.10
2018-06-14T05:56:00.176Z,21.10
2018-06-14T05:56:31.850Z,21.10
2018-06-14T05:57:03.561Z,21.10
2018-06-14T05:57:35.338Z,21.10
2018-06-14T05:58:07.116Z,21.10
2018-06-14T05:58:38.817Z,21.10
2018-06-14T05:59:10.558Z,21.10
2018-06-14T05:59:42.320Z,21.10
2018-06-14T06:00:14.027Z,21.10
2018-06-14T06:00:45.744Z,21.20
2018-06-14T06:01:17.492Z,21.20
2018-06-14T06:01:49.221Z,21.20
2018-06-14T06:02:20.947Z,21.30
2018-06-14T06:02:52.755Z,21.30
2018-06-14T06:03:24.419Z,21.30
2018-06-14T06:03:56.173Z,21.40
2018-06-14T06:04:27.910Z,21.40
2018-06-14T06:04:59.626Z,21.30
2018-06-14T06:05:31.334Z,21.30
2018-06-14T06:06:03.096Z,21.30
2018-06-14T06:06:34.817Z,21.30
2018-06-14T06:07:06.535Z,21.30
2018-06-14T06:07:38.250Z,21.30
2018-06-14T06:08:09.985Z,21.30
2018-06-14T06:08:41.728Z,21.30
2018-06-14T06:09:13.436Z,21.30
2018-06-14T06:09:45.159Z,21.20
2018-06-14T06:10:16.857Z,21.30
2018-06-14T06:10:48.579Z,21.20
2018-06-14T06:11:20.293Z,21.20
2018-06-14T06:11:52.091Z,21.20
2018-06-14T06:12:23.756Z,21.20
2018-06-14T06:12:55.491Z,21.20
2018-06-14T06:13:27.215Z,21.10
2018-06-14T06:13:58.957Z,21.10
2018-06-14T06:14:30.684Z,21.10
2018-06-14T06:15:02.459Z,21.10
2018-06-14T06:15:34.177Z,21.10
2018-06-14T06:16:05.918Z,21.10
2018-06-14T06:16:37.662Z,21.00
2018-06-14T06:17:09.417Z,21.00
2018-06-14T06:17:41.130Z,21.00
2018-06-14T06:18:12.847Z,21.00
2018-06-14T06:18:44.569Z,21.00
2018-06-14T06:19:16.286Z,21.00
2018-06-14T06:19:48.035Z,21.00
2018-06-14T06:20:19.734Z,21.00
2018-06-14T06:20:51.445Z,21.00
2018-06-14T06:21:23.225Z,21.00
2018-06-14T06:21:54.934Z,21.10
2018-06-14T06:22:26.671Z,21.10
2018-06-14T06:22:58.420Z,21.10
2018-06-14T06:23:30.175Z,21.10
2018-06-14T06:24:01.889Z,21.10
2018-06-14T06:24:33.622Z,21.10
2018-06-14T06:25:05.357Z,21.10
2018-06-14T06:25:37.085Z,21.10
2018-06-14T06:26:08.898Z,21.10
2018-06-14T06:26:40.587Z,21.10
2018-06-14T06:27:12.299Z,21.20
2018-06-14T06:27:44.044Z,21.20
2018-06-14T06:28:15.817Z,21.20
2018-06-14T06:28:47.535Z,21.30
2018-06-14T06:29:19.297Z,21.30
2018-06-14T06:29:51.101Z,21.20
2018-06-14T06:30:22.801Z,21.30
2018-06-14T06:30:54.519Z,21.30
2018-06-14T06:31:26.252Z,21.20
2018-06-14T06:31:57.954Z,21.20
2018-06-14T06:32:29.701Z,21.20
2018-06-14T06:33:01.420Z,21.20
2018-06-14T06:33:33.138Z,21.20
2018-06-14T06:34:04.859Z,21.20
2018-06-14T06:34:36.582Z,21.20
2018-06-14T06:35:08.338Z,21.10
2018-06-14T06:35:40.079Z,21.10
2018-06-14T06:36:11.793Z,21.20
2018-06-14T06:36:43.505Z,21.20
2018-06-14T06:37:15.223Z,21.20
2018-06-14T06:37:46.942Z,21.20
2018-06-14T06:38:18.697Z,21.20
2018-06-14T06:38:50.393Z,21.20
2018-06-14T06:39:22.111Z,21.20
2018-06-14T06:39:53.870Z,21.20
2018-06-14T06:40:25.591Z,21.20
2018-06-14T06:40:57.293Z,21.20
2018-06-14T06:41:29.046Z,21.20
2018-06-14T06:42:00.750Z,21.20
2018-06-14T06:42:32.478Z,21.20
2018-06-14T06:43:04.212Z,21.20
2018-06-14T06:43:35.946Z,21.10
2018-06-14T06:44:07.685Z,21.10
2018-06-14T06:44:39.374Z,21.10
2018-06-14T06:45:11.107Z,21.10
2018-06-14T06:45:42.838Z,21.20
2018-06-14T06:46:14.537Z,21.20
2018-06-14T06:46:46.255Z,21.10
2018-06-14T06:47:17.992Z,21.10
2018-06-14T06:47:49.717Z,21.10
2018-06-14T06:48:21.444Z,21.10
2018-06-14T06:48:53.182Z,21.10
2018-06-14T06:49:24.896Z,21.10
2018-06-14T06:49:56.617Z,21.10
2018-06-14T06:50:28.355Z,21.20
2018-06-14T06:51:00.075Z,21.20
2018-06-14T06:51:31.818Z,21.20
2018-06-14T06:52:03.555Z,21.20
2018-06-14T06:52:35.269Z,21.20
2018-06-14T06:53:07.080Z,21.20
2018-06-14T06:53:38.763Z,21.20
2018-06-14T06:54:10.495Z,21.20
2018-06-14T06:54:42.284Z,21.20
2018-06-14T06:55:14.014Z,21.10
2018-06-14T06:55:45.738Z,21.10
2018-06-14T06:56:17.469Z,21.10
2018-06-14T06:56:49.205Z,21.10
2018-06-14T06:57:20.936Z,21.10